sensor_id;sensor_type;location;lat;lon;timestamp;temperature;humidity
74364;DHT22;62797;49.740;10.154;2023-07-22T00:02:02;17.70;50.20
74364;DHT22;62797;49.740;10.154;2023-07-22T00:04:28;17.70;50.20
74364;DHT22;62797;49.740;10.154;2023-07-22T00:06:53;17.60;50.50
74364;DHT22;62797;49.740;10.154;2023-07-22T00:09:19;17.60;50.60
74364;DHT22;62797;49.740;10.154;2023-07-22T00:11:45;17.60;50.80
74364;DHT22;62797;49.740;10.154;2023-07-22T00:14:11;17.50;51.90
74364;DHT22;62797;49.740;10.154;2023-07-22T00:16:36;17.50;51.40
74364;DHT22;62797;49.740;10.154;2023-07-22T00:19:03;17.50;51.90
74364;DHT22;62797;49.740;10.154;2023-07-22T00:21:28;17.40;51.80
74364;DHT22;62797;49.740;10.154;2023-07-22T00:23:54;17.30;52.40
74364;DHT22;62797;49.740;10.154;2023-07-22T00:26:20;17.30;52.80
74364;DHT22;62797;49.740;10.154;2023-07-22T00:28:46;17.30;53.00
74364;DHT22;62797;49.740;10.154;2023-07-22T00:31:11;17.30;53.10
74364;DHT22;62797;49.740;10.154;2023-07-22T00:33:37;17.30;52.70
74364;DHT22;62797;49.740;10.154;2023-07-22T00:36:04;17.20;52.50
74364;DHT22;62797;49.740;10.154;2023-07-22T00:38:30;17.20;52.80
74364;DHT22;62797;49.740;10.154;2023-07-22T00:40:55;17.20;52.80
74364;DHT22;62797;49.740;10.154;2023-07-22T00:43:21;17.20;52.70
74364;DHT22;62797;49.740;10.154;2023-07-22T00:45:47;17.20;52.90
74364;DHT22;62797;49.740;10.154;2023-07-22T00:48:13;17.10;53.40
74364;DHT22;62797;49.740;10.154;2023-07-22T00:50:39;17.10;53.00
74364;DHT22;62797;49.740;10.154;2023-07-22T00:53:05;17.10;53.10
74364;DHT22;62797;49.740;10.154;2023-07-22T00:55:33;17.10;52.90
74364;DHT22;62797;49.740;10.154;2023-07-22T00:58:00;17.00;53.10
74364;DHT22;62797;49.740;10.154;2023-07-22T01:00:25;17.00;53.00
74364;DHT22;62797;49.740;10.154;2023-07-22T01:02:52;17.10;51.80
74364;DHT22;62797;49.740;10.154;2023-07-22T01:05:18;17.10;52.70
74364;DHT22;62797;49.740;10.154;2023-07-22T01:07:44;17.00;52.80
74364;DHT22;62797;49.740;10.154;2023-07-22T01:10:09;17.00;52.90
74364;DHT22;62797;49.740;10.154;2023-07-22T01:12:35;17.00;52.40
74364;DHT22;62797;49.740;10.154;2023-07-22T01:15:01;17.00;52.80
74364;DHT22;62797;49.740;10.154;2023-07-22T01:17:29;17.00;52.10
74364;DHT22;62797;49.740;10.154;2023-07-22T01:19:55;17.10;51.90
74364;DHT22;62797;49.740;10.154;2023-07-22T01:22:22;17.00;52.10
74364;DHT22;62797;49.740;10.154;2023-07-22T01:24:50;17.10;52.40
74364;DHT22;62797;49.740;10.154;2023-07-22T01:27:18;17.10;52.50
74364;DHT22;62797;49.740;10.154;2023-07-22T01:29:45;17.00;52.40
74364;DHT22;62797;49.740;10.154;2023-07-22T01:32:10;17.00;52.60
74364;DHT22;62797;49.740;10.154;2023-07-22T01:34:36;17.00;52.70
74364;DHT22;62797;49.740;10.154;2023-07-22T01:37:04;17.00;52.70
74364;DHT22;62797;49.740;10.154;2023-07-22T01:39:30;17.00;52.80
74364;DHT22;62797;49.740;10.154;2023-07-22T01:41:56;17.00;52.60
74364;DHT22;62797;49.740;10.154;2023-07-22T01:44:21;17.00;52.50
74364;DHT22;62797;49.740;10.154;2023-07-22T01:46:47;17.10;52.50
74364;DHT22;62797;49.740;10.154;2023-07-22T01:49:13;17.10;51.60
74364;DHT22;62797;49.740;10.154;2023-07-22T01:51:39;17.10;53.00
74364;DHT22;62797;49.740;10.154;2023-07-22T01:54:06;17.10;51.80
74364;DHT22;62797;49.740;10.154;2023-07-22T01:56:32;17.20;51.90
74364;DHT22;62797;49.740;10.154;2023-07-22T01:58:58;17.20;50.60
74364;DHT22;62797;49.740;10.154;2023-07-22T02:01:26;17.10;50.50
74364;DHT22;62797;49.740;10.154;2023-07-22T02:03:54;17.20;51.20
74364;DHT22;62797;49.740;10.154;2023-07-22T02:06:20;17.20;51.10
74364;DHT22;62797;49.740;10.154;2023-07-22T02:08:45;17.20;50.70
74364;DHT22;62797;49.740;10.154;2023-07-22T02:11:12;17.20;51.70
74364;DHT22;62797;49.740;10.154;2023-07-22T02:13:38;17.20;50.90
74364;DHT22;62797;49.740;10.154;2023-07-22T02:16:04;17.20;51.70
74364;DHT22;62797;49.740;10.154;2023-07-22T02:18:30;17.20;51.10
74364;DHT22;62797;49.740;10.154;2023-07-22T02:20:56;17.20;51.60
74364;DHT22;62797;49.740;10.154;2023-07-22T02:23:22;17.20;52.10
74364;DHT22;62797;49.740;10.154;2023-07-22T02:25:52;17.20;52.00
74364;DHT22;62797;49.740;10.154;2023-07-22T02:28:19;17.10;51.50
74364;DHT22;62797;49.740;10.154;2023-07-22T02:30:52;17.20;50.50
74364;DHT22;62797;49.740;10.154;2023-07-22T02:33:19;17.10;51.30
74364;DHT22;62797;49.740;10.154;2023-07-22T02:35:45;17.20;51.60
74364;DHT22;62797;49.740;10.154;2023-07-22T02:38:12;17.20;51.20
74364;DHT22;62797;49.740;10.154;2023-07-22T02:40:39;17.20;51.30
74364;DHT22;62797;49.740;10.154;2023-07-22T02:43:05;17.20;51.20
74364;DHT22;62797;49.740;10.154;2023-07-22T02:45:33;17.10;50.90
74364;DHT22;62797;49.740;10.154;2023-07-22T02:47:58;17.00;50.80
74364;DHT22;62797;49.740;10.154;2023-07-22T02:50:25;16.90;51.50
74364;DHT22;62797;49.740;10.154;2023-07-22T02:52:51;16.90;51.80
74364;DHT22;62797;49.740;10.154;2023-07-22T02:55:17;16.80;52.20
74364;DHT22;62797;49.740;10.154;2023-07-22T02:57:47;16.80;51.70
74364;DHT22;62797;49.740;10.154;2023-07-22T03:00:14;16.80;51.40
74364;DHT22;62797;49.740;10.154;2023-07-22T03:02:45;16.90;51.00
74364;DHT22;62797;49.740;10.154;2023-07-22T03:05:11;16.90;50.90
74364;DHT22;62797;49.740;10.154;2023-07-22T03:07:38;16.90;50.70
74364;DHT22;62797;49.740;10.154;2023-07-22T03:10:13;16.90;50.40
74364;DHT22;62797;49.740;10.154;2023-07-22T03:12:38;16.90;52.00
74364;DHT22;62797;49.740;10.154;2023-07-22T03:15:05;17.00;51.30
74364;DHT22;62797;49.740;10.154;2023-07-22T03:17:36;17.00;52.00
74364;DHT22;62797;49.740;10.154;2023-07-22T03:20:03;16.90;50.90
74364;DHT22;62797;49.740;10.154;2023-07-22T03:22:34;16.90;51.90
74364;DHT22;62797;49.740;10.154;2023-07-22T03:24:59;16.80;51.50
74364;DHT22;62797;49.740;10.154;2023-07-22T03:27:25;16.80;51.70
74364;DHT22;62797;49.740;10.154;2023-07-22T03:29:51;16.80;51.50
74364;DHT22;62797;49.740;10.154;2023-07-22T03:32:16;16.80;50.90
74364;DHT22;62797;49.740;10.154;2023-07-22T03:34:42;16.70;51.10
74364;DHT22;62797;49.740;10.154;2023-07-22T03:37:08;16.80;51.00
74364;DHT22;62797;49.740;10.154;2023-07-22T03:39:34;16.70;50.80
74364;DHT22;62797;49.740;10.154;2023-07-22T03:42:00;16.70;52.00
74364;DHT22;62797;49.740;10.154;2023-07-22T03:44:26;16.70;51.80
74364;DHT22;62797;49.740;10.154;2023-07-22T03:46:54;16.60;53.00
74364;DHT22;62797;49.740;10.154;2023-07-22T03:49:19;16.60;53.30
74364;DHT22;62797;49.740;10.154;2023-07-22T03:51:46;16.50;53.80
74364;DHT22;62797;49.740;10.154;2023-07-22T03:54:11;16.50;54.70
74364;DHT22;62797;49.740;10.154;2023-07-22T03:56:39;16.50;54.80
74364;DHT22;62797;49.740;10.154;2023-07-22T03:59:05;16.50;54.80
74364;DHT22;62797;49.740;10.154;2023-07-22T04:01:33;16.50;54.80
74364;DHT22;62797;49.740;10.154;2023-07-22T04:03:59;16.50;54.30
74364;DHT22;62797;49.740;10.154;2023-07-22T04:06:25;16.50;54.20
74364;DHT22;62797;49.740;10.154;2023-07-22T04:08:51;16.60;52.80
74364;DHT22;62797;49.740;10.154;2023-07-22T04:11:19;16.70;52.60
74364;DHT22;62797;49.740;10.154;2023-07-22T04:13:45;16.60;52.70
74364;DHT22;62797;49.740;10.154;2023-07-22T04:16:11;16.70;50.90
74364;DHT22;62797;49.740;10.154;2023-07-22T04:18:36;16.70;50.80
74364;DHT22;62797;49.740;10.154;2023-07-22T04:21:02;16.70;51.90
74364;DHT22;62797;49.740;10.154;2023-07-22T04:23:28;16.70;52.40
74364;DHT22;62797;49.740;10.154;2023-07-22T04:25:54;16.80;52.10
74364;DHT22;62797;49.740;10.154;2023-07-22T04:28:19;16.70;52.20
74364;DHT22;62797;49.740;10.154;2023-07-22T04:30:55;16.80;52.20
74364;DHT22;62797;49.740;10.154;2023-07-22T04:33:21;16.90;51.20
74364;DHT22;62797;49.740;10.154;2023-07-22T04:35:47;16.80;51.40
74364;DHT22;62797;49.740;10.154;2023-07-22T04:38:13;16.90;50.90
74364;DHT22;62797;49.740;10.154;2023-07-22T04:40:43;17.00;51.40
74364;DHT22;62797;49.740;10.154;2023-07-22T04:43:09;17.00;51.60
74364;DHT22;62797;49.740;10.154;2023-07-22T04:45:34;17.00;51.30
74364;DHT22;62797;49.740;10.154;2023-07-22T04:48:01;17.10;50.70
74364;DHT22;62797;49.740;10.154;2023-07-22T04:50:27;17.10;50.60
74364;DHT22;62797;49.740;10.154;2023-07-22T04:52:54;17.10;50.10
74364;DHT22;62797;49.740;10.154;2023-07-22T04:55:23;17.20;49.50
74364;DHT22;62797;49.740;10.154;2023-07-22T04:57:48;17.30;49.60
74364;DHT22;62797;49.740;10.154;2023-07-22T05:00:19;17.30;49.20
74364;DHT22;62797;49.740;10.154;2023-07-22T05:02:46;17.40;48.10
74364;DHT22;62797;49.740;10.154;2023-07-22T05:05:16;17.40;48.80
74364;DHT22;62797;49.740;10.154;2023-07-22T05:07:42;17.40;48.50
74364;DHT22;62797;49.740;10.154;2023-07-22T05:10:08;17.40;48.30
74364;DHT22;62797;49.740;10.154;2023-07-22T05:12:45;17.50;48.20
74364;DHT22;62797;49.740;10.154;2023-07-22T05:15:11;17.50;48.20
74364;DHT22;62797;49.740;10.154;2023-07-22T05:17:37;17.60;46.80
74364;DHT22;62797;49.740;10.154;2023-07-22T05:20:03;17.70;45.90
74364;DHT22;62797;49.740;10.154;2023-07-22T05:22:32;17.70;43.80
74364;DHT22;62797;49.740;10.154;2023-07-22T05:24:59;17.80;44.40
74364;DHT22;62797;49.740;10.154;2023-07-22T05:27:24;17.70;45.40
74364;DHT22;62797;49.740;10.154;2023-07-22T05:29:50;17.70;44.90
74364;DHT22;62797;49.740;10.154;2023-07-22T05:32:16;17.70;46.20
74364;DHT22;62797;49.740;10.154;2023-07-22T05:34:41;17.70;45.70
74364;DHT22;62797;49.740;10.154;2023-07-22T05:37:07;17.70;45.60
74364;DHT22;62797;49.740;10.154;2023-07-22T05:39:33;17.70;45.20
74364;DHT22;62797;49.740;10.154;2023-07-22T05:41:58;17.80;45.60
74364;DHT22;62797;49.740;10.154;2023-07-22T05:44:24;17.70;45.00
74364;DHT22;62797;49.740;10.154;2023-07-22T05:46:49;17.70;45.60
74364;DHT22;62797;49.740;10.154;2023-07-22T05:49:15;17.60;45.30
74364;DHT22;62797;49.740;10.154;2023-07-22T05:51:41;17.60;46.10
74364;DHT22;62797;49.740;10.154;2023-07-22T05:54:09;17.60;46.60
74364;DHT22;62797;49.740;10.154;2023-07-22T05:56:34;17.50;46.90
74364;DHT22;62797;49.740;10.154;2023-07-22T05:59:00;17.60;47.80
74364;DHT22;62797;49.740;10.154;2023-07-22T06:01:26;17.50;47.30
74364;DHT22;62797;49.740;10.154;2023-07-22T06:03:52;17.40;47.50
74364;DHT22;62797;49.740;10.154;2023-07-22T06:06:18;17.40;48.30
74364;DHT22;62797;49.740;10.154;2023-07-22T06:08:43;17.30;48.10
74364;DHT22;62797;49.740;10.154;2023-07-22T06:11:09;17.40;48.20
74364;DHT22;62797;49.740;10.154;2023-07-22T06:13:35;17.40;48.00
74364;DHT22;62797;49.740;10.154;2023-07-22T06:16:01;17.40;46.60
74364;DHT22;62797;49.740;10.154;2023-07-22T06:18:26;17.50;48.00
74364;DHT22;62797;49.740;10.154;2023-07-22T06:20:52;17.70;46.80
74364;DHT22;62797;49.740;10.154;2023-07-22T06:23:18;17.70;46.00
74364;DHT22;62797;49.740;10.154;2023-07-22T06:25:44;17.70;45.30
74364;DHT22;62797;49.740;10.154;2023-07-22T06:28:09;17.70;45.80
74364;DHT22;62797;49.740;10.154;2023-07-22T06:30:35;17.70;45.40
74364;DHT22;62797;49.740;10.154;2023-07-22T06:33:01;17.80;45.10
74364;DHT22;62797;49.740;10.154;2023-07-22T06:35:26;17.90;43.80
74364;DHT22;62797;49.740;10.154;2023-07-22T06:37:52;17.80;44.10
74364;DHT22;62797;49.740;10.154;2023-07-22T06:40:18;17.90;44.50
74364;DHT22;62797;49.740;10.154;2023-07-22T06:42:43;17.90;44.40
74364;DHT22;62797;49.740;10.154;2023-07-22T06:45:09;17.90;44.20
74364;DHT22;62797;49.740;10.154;2023-07-22T06:47:36;18.00;43.40
74364;DHT22;62797;49.740;10.154;2023-07-22T06:50:07;18.00;43.60
74364;DHT22;62797;49.740;10.154;2023-07-22T06:52:33;18.00;42.80
74364;DHT22;62797;49.740;10.154;2023-07-22T06:54:59;18.00;43.30
74364;DHT22;62797;49.740;10.154;2023-07-22T06:57:25;18.20;43.60
74364;DHT22;62797;49.740;10.154;2023-07-22T06:59:53;18.30;42.90
74364;DHT22;62797;49.740;10.154;2023-07-22T07:02:19;18.40;42.60
74364;DHT22;62797;49.740;10.154;2023-07-22T07:04:44;18.50;42.50
74364;DHT22;62797;49.740;10.154;2023-07-22T07:07:11;18.50;40.80
74364;DHT22;62797;49.740;10.154;2023-07-22T07:09:40;18.40;41.10
74364;DHT22;62797;49.740;10.154;2023-07-22T07:12:06;18.40;41.40
74364;DHT22;62797;49.740;10.154;2023-07-22T07:14:35;18.50;40.80
74364;DHT22;62797;49.740;10.154;2023-07-22T07:17:02;18.50;40.50
74364;DHT22;62797;49.740;10.154;2023-07-22T07:19:30;18.50;40.90
74364;DHT22;62797;49.740;10.154;2023-07-22T07:21:56;18.50;40.30
74364;DHT22;62797;49.740;10.154;2023-07-22T07:24:21;18.60;39.30
74364;DHT22;62797;49.740;10.154;2023-07-22T07:26:47;18.60;39.00
74364;DHT22;62797;49.740;10.154;2023-07-22T07:29:13;18.70;38.70
74364;DHT22;62797;49.740;10.154;2023-07-22T07:31:39;18.70;38.70
74364;DHT22;62797;49.740;10.154;2023-07-22T07:34:07;18.70;37.60
74364;DHT22;62797;49.740;10.154;2023-07-22T07:36:33;18.90;37.80
74364;DHT22;62797;49.740;10.154;2023-07-22T07:38:59;18.80;36.80
74364;DHT22;62797;49.740;10.154;2023-07-22T07:41:24;18.90;35.70
74364;DHT22;62797;49.740;10.154;2023-07-22T07:43:50;18.90;34.90
74364;DHT22;62797;49.740;10.154;2023-07-22T07:46:20;18.80;35.50
74364;DHT22;62797;49.740;10.154;2023-07-22T07:48:52;18.80;34.50
74364;DHT22;62797;49.740;10.154;2023-07-22T07:51:19;18.80;34.90
74364;DHT22;62797;49.740;10.154;2023-07-22T07:53:46;18.70;35.20
74364;DHT22;62797;49.740;10.154;2023-07-22T07:56:15;18.60;35.90
74364;DHT22;62797;49.740;10.154;2023-07-22T07:58:42;18.60;36.10
74364;DHT22;62797;49.740;10.154;2023-07-22T08:01:08;18.60;35.70
74364;DHT22;62797;49.740;10.154;2023-07-22T08:03:34;18.70;35.40
74364;DHT22;62797;49.740;10.154;2023-07-22T08:06:01;18.70;36.10
74364;DHT22;62797;49.740;10.154;2023-07-22T08:08:27;18.80;35.80
74364;DHT22;62797;49.740;10.154;2023-07-22T08:13:28;19.00;34.60
74364;DHT22;62797;49.740;10.154;2023-07-22T08:16:03;19.00;34.00
74364;DHT22;62797;49.740;10.154;2023-07-22T08:18:30;19.00;33.50
74364;DHT22;62797;49.740;10.154;2023-07-22T08:20:56;19.00;33.60
74364;DHT22;62797;49.740;10.154;2023-07-22T08:23:22;19.10;31.80
74364;DHT22;62797;49.740;10.154;2023-07-22T08:25:51;19.10;31.40
74364;DHT22;62797;49.740;10.154;2023-07-22T08:28:17;19.20;31.00
74364;DHT22;62797;49.740;10.154;2023-07-22T08:30:43;19.30;30.90
74364;DHT22;62797;49.740;10.154;2023-07-22T08:33:10;19.40;29.80
74364;DHT22;62797;49.740;10.154;2023-07-22T08:35:39;19.50;30.10
74364;DHT22;62797;49.740;10.154;2023-07-22T08:38:06;19.60;29.10
74364;DHT22;62797;49.740;10.154;2023-07-22T08:40:39;19.80;29.70
74364;DHT22;62797;49.740;10.154;2023-07-22T08:43:10;20.10;28.90
74364;DHT22;62797;49.740;10.154;2023-07-22T08:45:37;20.30;29.00
74364;DHT22;62797;49.740;10.154;2023-07-22T08:48:05;20.50;28.60
74364;DHT22;62797;49.740;10.154;2023-07-22T08:50:47;20.80;27.80
74364;DHT22;62797;49.740;10.154;2023-07-22T08:53:15;21.00;27.50
74364;DHT22;62797;49.740;10.154;2023-07-22T08:55:42;21.10;26.10
74364;DHT22;62797;49.740;10.154;2023-07-22T08:58:11;21.10;25.80
74364;DHT22;62797;49.740;10.154;2023-07-22T09:00:38;21.10;25.80
74364;DHT22;62797;49.740;10.154;2023-07-22T09:03:05;21.10;26.50
74364;DHT22;62797;49.740;10.154;2023-07-22T09:05:34;21.30;25.40
74364;DHT22;62797;49.740;10.154;2023-07-22T09:08:02;21.40;25.20
74364;DHT22;62797;49.740;10.154;2023-07-22T09:10:29;21.50;23.60
74364;DHT22;62797;49.740;10.154;2023-07-22T09:12:55;21.70;23.80
74364;DHT22;62797;49.740;10.154;2023-07-22T09:15:21;21.70;23.90
74364;DHT22;62797;49.740;10.154;2023-07-22T09:17:49;21.70;23.20
74364;DHT22;62797;49.740;10.154;2023-07-22T09:20:15;21.60;24.80
74364;DHT22;62797;49.740;10.154;2023-07-22T09:22:47;21.60;24.40
74364;DHT22;62797;49.740;10.154;2023-07-22T09:25:21;21.70;24.50
74364;DHT22;62797;49.740;10.154;2023-07-22T09:27:48;21.70;23.80
74364;DHT22;62797;49.740;10.154;2023-07-22T09:30:25;21.70;23.80
74364;DHT22;62797;49.740;10.154;2023-07-22T09:32:53;21.70;23.60
74364;DHT22;62797;49.740;10.154;2023-07-22T09:35:19;21.70;23.60
74364;DHT22;62797;49.740;10.154;2023-07-22T09:37:45;21.70;24.20
74364;DHT22;62797;49.740;10.154;2023-07-22T09:40:19;21.80;24.00
74364;DHT22;62797;49.740;10.154;2023-07-22T09:45:15;21.70;22.90
74364;DHT22;62797;49.740;10.154;2023-07-22T09:47:46;21.50;23.40
74364;DHT22;62797;49.740;10.154;2023-07-22T09:50:15;21.60;22.20
74364;DHT22;62797;49.740;10.154;2023-07-22T09:52:49;21.70;21.80
74364;DHT22;62797;49.740;10.154;2023-07-22T09:55:20;21.90;22.30
74364;DHT22;62797;49.740;10.154;2023-07-22T09:58:05;22.50;21.80
74364;DHT22;62797;49.740;10.154;2023-07-22T10:00:33;22.80;20.00
74364;DHT22;62797;49.740;10.154;2023-07-22T10:03:01;22.80;19.70
74364;DHT22;62797;49.740;10.154;2023-07-22T10:05:30;22.70;20.50
74364;DHT22;62797;49.740;10.154;2023-07-22T10:07:58;22.90;20.70
74364;DHT22;62797;49.740;10.154;2023-07-22T10:10:34;23.20;19.40
74364;DHT22;62797;49.740;10.154;2023-07-22T10:13:00;23.30;18.60
74364;DHT22;62797;49.740;10.154;2023-07-22T10:15:29;23.30;19.70
74364;DHT22;62797;49.740;10.154;2023-07-22T10:17:56;23.50;19.90
74364;DHT22;62797;49.740;10.154;2023-07-22T10:20:23;23.70;19.30
74364;DHT22;62797;49.740;10.154;2023-07-22T10:22:50;23.80;18.20
74364;DHT22;62797;49.740;10.154;2023-07-22T10:25:20;24.00;17.50
74364;DHT22;62797;49.740;10.154;2023-07-22T10:27:47;24.10;18.00
74364;DHT22;62797;49.740;10.154;2023-07-22T10:30:15;24.20;17.20
74364;DHT22;62797;49.740;10.154;2023-07-22T10:32:50;24.10;16.20
74364;DHT22;62797;49.740;10.154;2023-07-22T10:35:34;24.10;16.40
74364;DHT22;62797;49.740;10.154;2023-07-22T10:38:15;24.10;17.60
74364;DHT22;62797;49.740;10.154;2023-07-22T10:40:59;24.10;16.70
74364;DHT22;62797;49.740;10.154;2023-07-22T10:43:26;24.20;16.30
74364;DHT22;62797;49.740;10.154;2023-07-22T10:45:56;24.20;15.80
74364;DHT22;62797;49.740;10.154;2023-07-22T10:48:25;24.30;15.60
74364;DHT22;62797;49.740;10.154;2023-07-22T10:50:54;24.40;16.10
74364;DHT22;62797;49.740;10.154;2023-07-22T10:53:30;24.40;15.20
74364;DHT22;62797;49.740;10.154;2023-07-22T10:56:18;24.20;14.90
74364;DHT22;62797;49.740;10.154;2023-07-22T11:04:13;24.20;14.70
74364;DHT22;62797;49.740;10.154;2023-07-22T11:12:01;24.00;16.40
74364;DHT22;62797;49.740;10.154;2023-07-22T11:14:39;24.00;15.70
74364;DHT22;62797;49.740;10.154;2023-07-22T11:17:06;23.80;16.30
74364;DHT22;62797;49.740;10.154;2023-07-22T11:19:37;23.80;16.50
74364;DHT22;62797;49.740;10.154;2023-07-22T11:22:04;23.80;17.00
74364;DHT22;62797;49.740;10.154;2023-07-22T11:24:33;23.90;17.20
74364;DHT22;62797;49.740;10.154;2023-07-22T11:26:59;24.00;15.40
74364;DHT22;62797;49.740;10.154;2023-07-22T11:29:24;24.00;16.00
74364;DHT22;62797;49.740;10.154;2023-07-22T11:31:51;24.10;15.80
74364;DHT22;62797;49.740;10.154;2023-07-22T11:34:21;24.40;14.60
74364;DHT22;62797;49.740;10.154;2023-07-22T11:36:49;24.60;14.90
74364;DHT22;62797;49.740;10.154;2023-07-22T11:39:17;24.90;15.00
74364;DHT22;62797;49.740;10.154;2023-07-22T11:41:44;25.00;14.10
74364;DHT22;62797;49.740;10.154;2023-07-22T11:44:12;24.80;13.60
74364;DHT22;62797;49.740;10.154;2023-07-22T11:47:00;25.00;13.60
74364;DHT22;62797;49.740;10.154;2023-07-22T11:49:30;25.00;13.10
74364;DHT22;62797;49.740;10.154;2023-07-22T11:51:57;25.00;12.00
74364;DHT22;62797;49.740;10.154;2023-07-22T11:54:23;25.00;12.30
74364;DHT22;62797;49.740;10.154;2023-07-22T11:56:49;25.10;12.10
74364;DHT22;62797;49.740;10.154;2023-07-22T11:59:15;25.10;11.80
74364;DHT22;62797;49.740;10.154;2023-07-22T12:01:46;25.00;11.30
74364;DHT22;62797;49.740;10.154;2023-07-22T12:04:13;24.70;11.70
74364;DHT22;62797;49.740;10.154;2023-07-22T12:06:42;24.50;13.10
74364;DHT22;62797;49.740;10.154;2023-07-22T12:09:08;24.60;13.80
74364;DHT22;62797;49.740;10.154;2023-07-22T12:11:35;24.70;13.50
74364;DHT22;62797;49.740;10.154;2023-07-22T12:14:12;24.80;11.80
74364;DHT22;62797;49.740;10.154;2023-07-22T12:16:39;25.00;11.60
74364;DHT22;62797;49.740;10.154;2023-07-22T12:19:06;24.80;11.00
74364;DHT22;62797;49.740;10.154;2023-07-22T12:21:32;24.80;11.90
74364;DHT22;62797;49.740;10.154;2023-07-22T12:23:59;24.70;12.30
74364;DHT22;62797;49.740;10.154;2023-07-22T12:26:25;24.70;12.40
74364;DHT22;62797;49.740;10.154;2023-07-22T12:28:50;24.80;12.70
74364;DHT22;62797;49.740;10.154;2023-07-22T12:31:16;25.00;12.30
74364;DHT22;62797;49.740;10.154;2023-07-22T12:33:42;25.30;11.50
74364;DHT22;62797;49.740;10.154;2023-07-22T12:36:08;25.20;14.00
74364;DHT22;62797;49.740;10.154;2023-07-22T12:38:33;25.20;12.40
74364;DHT22;62797;49.740;10.154;2023-07-22T12:41:00;25.50;12.10
74364;DHT22;62797;49.740;10.154;2023-07-22T12:43:26;25.60;12.30
74364;DHT22;62797;49.740;10.154;2023-07-22T12:45:52;25.80;11.00
74364;DHT22;62797;49.740;10.154;2023-07-22T12:48:17;25.90;12.10
74364;DHT22;62797;49.740;10.154;2023-07-22T12:50:44;26.20;12.00
74364;DHT22;62797;49.740;10.154;2023-07-22T12:53:10;26.70;10.60
74364;DHT22;62797;49.740;10.154;2023-07-22T12:55:36;26.80;10.20
74364;DHT22;62797;49.740;10.154;2023-07-22T12:58:02;26.80;9.90
74364;DHT22;62797;49.740;10.154;2023-07-22T13:00:28;26.90;9.90
74364;DHT22;62797;49.740;10.154;2023-07-22T13:02:53;27.20;8.60
74364;DHT22;62797;49.740;10.154;2023-07-22T13:05:19;27.10;8.90
74364;DHT22;62797;49.740;10.154;2023-07-22T13:07:45;26.90;8.30
74364;DHT22;62797;49.740;10.154;2023-07-22T13:10:11;26.70;8.70
74364;DHT22;62797;49.740;10.154;2023-07-22T13:12:40;26.50;9.20
74364;DHT22;62797;49.740;10.154;2023-07-22T13:15:06;26.40;9.70
74364;DHT22;62797;49.740;10.154;2023-07-22T13:17:32;26.20;8.10
74364;DHT22;62797;49.740;10.154;2023-07-22T13:20:00;26.10;9.60
74364;DHT22;62797;49.740;10.154;2023-07-22T13:22:25;26.20;9.00
74364;DHT22;62797;49.740;10.154;2023-07-22T13:24:51;26.50;9.60
74364;DHT22;62797;49.740;10.154;2023-07-22T13:27:18;26.50;8.80
74364;DHT22;62797;49.740;10.154;2023-07-22T13:29:43;26.40;9.50
74364;DHT22;62797;49.740;10.154;2023-07-22T13:32:09;26.30;8.50
74364;DHT22;62797;49.740;10.154;2023-07-22T13:34:34;26.00;8.80
74364;DHT22;62797;49.740;10.154;2023-07-22T13:37:00;25.80;9.10
74364;DHT22;62797;49.740;10.154;2023-07-22T13:39:28;25.70;9.50
74364;DHT22;62797;49.740;10.154;2023-07-22T13:41:53;25.80;9.80
74364;DHT22;62797;49.740;10.154;2023-07-22T13:44:19;26.00;9.40
74364;DHT22;62797;49.740;10.154;2023-07-22T13:46:45;26.10;9.40
74364;DHT22;62797;49.740;10.154;2023-07-22T13:49:11;26.20;10.40
74364;DHT22;62797;49.740;10.154;2023-07-22T13:51:36;26.40;8.80
74364;DHT22;62797;49.740;10.154;2023-07-22T13:54:02;26.30;8.20
74364;DHT22;62797;49.740;10.154;2023-07-22T13:56:28;26.00;9.70
74364;DHT22;62797;49.740;10.154;2023-07-22T13:58:56;26.00;10.30
74364;DHT22;62797;49.740;10.154;2023-07-22T14:01:23;26.00;10.30
74364;DHT22;62797;49.740;10.154;2023-07-22T14:03:49;25.90;9.70
74364;DHT22;62797;49.740;10.154;2023-07-22T14:06:17;26.00;10.70
74364;DHT22;62797;49.740;10.154;2023-07-22T14:08:42;26.30;9.90
74364;DHT22;62797;49.740;10.154;2023-07-22T14:11:08;26.50;8.70
74364;DHT22;62797;49.740;10.154;2023-07-22T14:13:34;26.60;10.00
74364;DHT22;62797;49.740;10.154;2023-07-22T14:16:01;26.50;8.40
74364;DHT22;62797;49.740;10.154;2023-07-22T14:18:27;26.40;8.90
74364;DHT22;62797;49.740;10.154;2023-07-22T14:20:52;26.30;9.00
74364;DHT22;62797;49.740;10.154;2023-07-22T14:23:18;26.20;10.70
74364;DHT22;62797;49.740;10.154;2023-07-22T14:25:44;26.60;9.00
74364;DHT22;62797;49.740;10.154;2023-07-22T14:28:09;26.60;8.30
74364;DHT22;62797;49.740;10.154;2023-07-22T14:30:35;26.60;8.80
74364;DHT22;62797;49.740;10.154;2023-07-22T14:33:00;26.60;8.40
74364;DHT22;62797;49.740;10.154;2023-07-22T14:35:26;26.60;7.80
74364;DHT22;62797;49.740;10.154;2023-07-22T14:37:52;26.50;8.30
74364;DHT22;62797;49.740;10.154;2023-07-22T14:40:17;26.50;8.20
74364;DHT22;62797;49.740;10.154;2023-07-22T14:42:46;26.40;8.80
74364;DHT22;62797;49.740;10.154;2023-07-22T14:45:14;26.40;9.50
74364;DHT22;62797;49.740;10.154;2023-07-22T14:47:40;26.50;8.50
74364;DHT22;62797;49.740;10.154;2023-07-22T14:50:06;26.30;8.30
74364;DHT22;62797;49.740;10.154;2023-07-22T14:52:31;26.20;8.90
74364;DHT22;62797;49.740;10.154;2023-07-22T14:54:57;26.10;8.60
74364;DHT22;62797;49.740;10.154;2023-07-22T14:57:23;26.10;7.70
74364;DHT22;62797;49.740;10.154;2023-07-22T14:59:52;26.10;8.20
74364;DHT22;62797;49.740;10.154;2023-07-22T15:02:19;26.00;8.60
74364;DHT22;62797;49.740;10.154;2023-07-22T15:04:45;25.90;7.90
74364;DHT22;62797;49.740;10.154;2023-07-22T15:07:11;25.90;8.20
74364;DHT22;62797;49.740;10.154;2023-07-22T15:09:36;26.00;8.20
74364;DHT22;62797;49.740;10.154;2023-07-22T15:12:02;26.20;9.90
74364;DHT22;62797;49.740;10.154;2023-07-22T15:14:28;26.70;8.40
74364;DHT22;62797;49.740;10.154;2023-07-22T15:16:53;27.20;7.10
74364;DHT22;62797;49.740;10.154;2023-07-22T15:19:21;27.30;5.60
74364;DHT22;62797;49.740;10.154;2023-07-22T15:21:48;27.40;6.50
74364;DHT22;62797;49.740;10.154;2023-07-22T15:24:14;27.50;6.40
74364;DHT22;62797;49.740;10.154;2023-07-22T15:26:40;27.40;6.20
74364;DHT22;62797;49.740;10.154;2023-07-22T15:29:06;27.30;6.40
74364;DHT22;62797;49.740;10.154;2023-07-22T15:31:32;27.50;6.20
74364;DHT22;62797;49.740;10.154;2023-07-22T15:33:57;27.60;5.40